Time;durP1;ratioP1;P1;durP2;ratioP2;P2;SDS_P1;SDS_P2;PMS_P1;PMS_P2;Temp;Humidity;BMP_temperature;BMP_pressure;BME280_temperature;BME280_humidity;BME280_pressure;Samples;Min_cycle;Max_cycle;Signal;HPM_P1;HPM_P2
2021/12/13 00:00:32;;;;;;;3.17;2.87;;;;;;;7.96;97.13;101583.03;5031070;28;20209;-74
2021/12/13 00:03:08;;;;;;;3.43;3.13;;;;;;;7.97;97.09;101576.81;5027133;28;20221;-74
2021/12/13 00:05:39;;;;;;;3.73;3.33;;;;;;;8.00;97.22;101589.09;5027009;28;20677;-73
2021/12/13 00:08:09;;;;;;;3.80;3.40;;;;;;;8.01;96.78;101590.81;5032036;28;20206;-75
2021/12/13 00:10:42;;;;;;;4.13;3.73;;;;;;;8.00;96.87;101582.00;5034509;28;20230;-75
2021/12/13 00:13:14;;;;;;;3.83;3.40;;;;;;;8.01;97.47;101585.53;5027060;28;20222;-75
2021/12/13 00:15:47;;;;;;;4.53;3.77;;;;;;;8.04;97.11;101590.72;5027703;28;20615;-75
2021/12/13 00:18:20;;;;;;;4.20;3.63;;;;;;;8.06;97.13;101588.00;5029301;28;20218;-75
2021/12/13 00:20:55;;;;;;;4.40;4.00;;;;;;;8.07;96.83;101590.56;5027938;28;20210;-74
2021/12/13 00:23:26;;;;;;;5.63;4.10;;;;;;;8.08;96.69;101592.31;5027571;28;20241;-75
2021/12/13 00:25:56;;;;;;;3.93;3.50;;;;;;;8.09;97.26;101588.72;5030619;28;20209;-75
2021/12/13 00:28:26;;;;;;;5.13;4.07;;;;;;;8.10;97.46;101587.81;5025905;28;20224;-74
2021/12/13 00:31:05;;;;;;;3.93;3.63;;;;;;;8.12;96.86;101587.75;5029450;28;20226;-74
2021/12/13 00:33:53;;;;;;;4.30;3.87;;;;;;;8.14;97.21;101584.13;5027524;28;20221;-72
2021/12/13 00:36:28;;;;;;;4.50;4.10;;;;;;;8.16;97.34;101589.38;5027916;28;20743;-74
2021/12/13 00:39:03;;;;;;;4.83;4.43;;;;;;;8.16;97.25;101584.94;5027644;28;20240;-74
2021/12/13 00:41:31;;;;;;;4.50;4.10;;;;;;;8.18;96.72;101595.50;5025275;28;20208;-75
2021/12/13 00:44:03;;;;;;;5.73;4.50;;;;;;;8.17;97.01;101596.41;5029053;28;20230;-74
2021/12/13 00:46:31;;;;;;;5.00;4.60;;;;;;;8.17;97.23;101593.75;5025149;28;20662;-73
2021/12/13 00:49:02;;;;;;;4.90;4.37;;;;;;;8.20;97.05;101598.97;5028567;28;20210;-74
2021/12/13 00:51:32;;;;;;;4.77;4.33;;;;;;;8.20;97.09;101597.16;5019310;28;20233;-74
2021/12/13 00:54:03;;;;;;;5.23;4.73;;;;;;;8.21;97.24;101601.56;5027533;28;20233;-75
2021/12/13 00:56:46;;;;;;;5.17;4.50;;;;;;;8.23;97.83;101602.38;5029122;28;20217;-74
2021/12/13 00:59:19;;;;;;;5.10;4.30;;;;;;;8.26;97.30;101601.34;5022222;28;20212;-74
2021/12/13 01:01:52;;;;;;;4.23;3.83;;;;;;;8.27;97.27;101609.25;5028583;28;20198;-74
2021/12/13 01:04:20;;;;;;;4.53;3.90;;;;;;;8.29;97.56;101615.38;5029742;28;20581;-74
2021/12/13 01:07:35;;;;;;;5.20;4.70;;;;;;;8.31;97.50;101621.50;5028260;28;20217;-74
2021/12/13 01:10:35;;;;;;;6.57;5.00;;;;;;;8.34;97.38;101620.53;5024871;28;20236;-74
2021/12/13 01:13:02;;;;;;;5.53;4.93;;;;;;;8.34;96.99;101617.88;5028968;28;20206;-74
2021/12/13 01:15:37;;;;;;;5.27;4.77;;;;;;;8.37;97.67;101631.06;5030313;28;20626;-74
2021/12/13 01:18:20;;;;;;;5.40;4.43;;;;;;;8.37;97.49;101633.72;5028264;28;20295;-74
2021/12/13 01:21:00;;;;;;;5.33;4.83;;;;;;;8.40;97.16;101628.28;5028798;28;20202;-75
2021/12/13 01:23:41;;;;;;;5.07;4.57;;;;;;;8.41;97.31;101637.13;5019002;28;20283;-75
2021/12/13 01:26:29;;;;;;;5.67;5.07;;;;;;;8.41;97.29;101637.13;5023358;28;20214;-74
2021/12/13 01:28:58;;;;;;;5.20;4.70;;;;;;;8.43;97.72;101646.72;5026944;28;20210;-75
2021/12/13 01:31:30;;;;;;;5.30;4.80;;;;;;;8.43;97.04;101637.88;5027967;28;20228;-74
2021/12/13 01:33:58;;;;;;;5.60;4.93;;;;;;;8.44;97.79;101636.97;5027296;28;20303;-74
2021/12/13 01:36:32;;;;;;;6.80;6.07;;;;;;;8.46;97.48;101640.44;5030374;28;20206;-74
2021/12/13 01:39:05;;;;;;;6.20;5.60;;;;;;;8.45;97.76;101634.25;5022552;28;20737;-74
2021/12/13 01:41:38;;;;;;;6.67;5.70;;;;;;;8.46;97.24;101640.44;5027932;28;20210;-74
2021/12/13 01:44:11;;;;;;;5.97;5.20;;;;;;;8.47;97.17;101636.84;5028538;28;20234;-75
2021/12/13 01:46:40;;;;;;;6.40;5.80;;;;;;;8.48;97.85;101644.75;5041914;28;20205;-75
2021/12/13 01:49:09;;;;;;;6.10;5.00;;;;;;;8.50;97.58;101636.75;5030271;28;20224;-75
2021/12/13 01:51:40;;;;;;;5.77;5.17;;;;;;;8.51;97.83;101647.31;5027339;28;20222;-75
2021/12/13 01:54:10;;;;;;;6.17;5.43;;;;;;;8.52;97.55;101648.16;5025048;28;20233;-74
2021/12/13 01:56:44;;;;;;;6.33;5.23;;;;;;;8.54;97.52;101641.00;5021103;28;20564;-74
2021/12/13 01:59:40;;;;;;;6.87;5.13;;;;;;;8.53;97.40;101641.94;5030225;28;20213;-74
2021/12/13 02:02:12;;;;;;;5.53;4.93;;;;;;;8.54;98.07;101641.00;5021508;28;20306;-74
2021/12/13 02:04:39;;;;;;;6.30;5.10;;;;;;;8.55;98.20;101642.75;5029960;28;20225;-74
2021/12/13 02:07:09;;;;;;;5.97;4.60;;;;;;;8.57;97.92;101641.75;5025165;28;20217;-74
2021/12/13 02:09:39;;;;;;;7.13;5.30;;;;;;;8.59;97.86;101637.25;5029770;28;20206;-74
2021/12/13 02:12:14;;;;;;;6.20;5.53;;;;;;;8.61;98.23;101645.13;5019073;28;20233;-74
2021/12/13 02:14:49;;;;;;;6.07;5.47;;;;;;;8.62;97.55;101653.03;5022049;28;20299;-74
2021/12/13 02:17:20;;;;;;;7.30;5.73;;;;;;;8.62;98.22;101647.75;5018593;28;20260;-74
2021/12/13 02:19:53;;;;;;;6.17;5.47;;;;;;;8.64;97.95;101645.03;5029945;28;20218;-75
2021/12/13 02:22:43;;;;;;;7.60;5.90;;;;;;;8.67;97.46;101639.59;5028029;28;20205;-74
2021/12/13 02:25:16;;;;;;;6.77;5.73;;;;;;;8.68;97.92;101650.16;5013560;28;20230;-75
2021/12/13 02:27:47;;;;;;;8.87;6.30;;;;;;;8.70;98.12;101644.78;5020135;28;20630;-74
2021/12/13 02:30:19;;;;;;;7.43;6.03;;;;;;;8.72;97.95;101645.59;5020453;28;20214;-74
2021/12/13 02:32:47;;;;;;;7.73;6.53;;;;;;;8.72;97.83;101653.56;5023695;28;20746;-74
2021/12/13 02:35:16;;;;;;;8.27;6.90;;;;;;;8.71;98.05;101646.53;5026995;28;20214;-75
2021/12/13 02:37:45;;;;;;;8.50;7.17;;;;;;;8.73;98.37;101650.00;5032752;28;20206;-74
2021/12/13 02:40:15;;;;;;;10.50;7.93;;;;;;;8.74;98.14;101657.03;5029846;28;20570;-73
2021/12/13 02:42:41;;;;;;;12.13;9.20;;;;;;;8.74;98.12;101657.03;5026483;28;20204;-74
2021/12/13 02:45:15;;;;;;;12.13;9.40;;;;;;;8.77;98.27;101656.91;5033601;28;20324;-74
2021/12/13 02:47:52;;;;;;;14.93;10.53;;;;;;;8.78;97.87;101660.44;5032978;28;20229;-74
2021/12/13 02:50:26;;;;;;;14.80;11.17;;;;;;;8.81;98.65;101663.81;5028436;28;20217;-75
2021/12/13 02:52:54;;;;;;;15.93;12.00;;;;;;;8.81;97.83;101669.13;5031926;28;20201;-72
2021/12/13 02:55:29;;;;;;;14.47;11.07;;;;;;;8.80;98.47;101659.41;5034913;28;20206;-75
2021/12/13 02:57:59;;;;;;;15.97;12.77;;;;;;;8.84;97.88;101665.47;5038684;28;20592;-74
2021/12/13 03:00:29;;;;;;;15.80;11.67;;;;;;;8.84;97.81;101668.13;5015079;28;20217;-75
2021/12/13 03:02:59;;;;;;;17.00;13.07;;;;;;;8.83;98.22;101667.28;5017801;28;20698;-75
2021/12/13 03:05:34;;;;;;;17.63;12.03;;;;;;;8.84;98.40;101669.00;5021158;28;20317;-75
2021/12/13 03:08:07;;;;;;;17.27;12.10;;;;;;;8.85;98.44;101673.41;5030050;28;20221;-75
2021/12/13 03:10:37;;;;;;;16.53;11.63;;;;;;;8.87;97.94;101676.84;5030813;28;20659;-75
2021/12/13 03:13:04;;;;;;;17.67;11.83;;;;;;;8.88;98.17;101675.94;5024096;28;20214;-74
2021/12/13 03:15:33;;;;;;;15.53;11.80;;;;;;;8.89;98.58;101677.66;5054728;22;20232;-84
2021/12/13 03:18:07;;;;;;;17.60;12.53;;;;;;;8.90;98.44;101682.06;5056936;28;20575;-83
2021/12/13 03:20:55;;;;;;;20.30;12.40;;;;;;;8.90;97.93;101684.72;5040934;28;20197;-83
2021/12/13 03:23:34;;;;;;;15.97;11.50;;;;;;;8.91;98.35;101675.81;5046430;28;20202;-85
2021/12/13 03:26:20;;;;;;;16.80;12.37;;;;;;;8.91;98.09;101683.78;5054886;28;20214;-84
2021/12/13 03:29:00;;;;;;;18.37;13.37;;;;;;;8.92;98.76;101688.19;5058897;28;20234;-83
2021/12/13 03:31:35;;;;;;;19.97;13.40;;;;;;;8.91;98.35;101681.13;5059452;28;20221;-84
2021/12/13 03:34:06;;;;;;;19.70;13.77;;;;;;;8.94;98.13;101685.47;5058436;28;20300;-84
2021/12/13 03:36:46;;;;;;;20.80;13.27;;;;;;;8.94;98.88;101673.03;5063923;28;20202;-85
2021/12/13 03:39:18;;;;;;;17.93;13.13;;;;;;;8.96;98.87;101684.44;5057063;28;20228;-85
2021/12/13 03:41:48;;;;;;;17.40;12.80;;;;;;;8.96;98.20;101687.09;5059090;28;20288;-84
2021/12/13 03:44:18;;;;;;;17.63;13.03;;;;;;;8.98;98.70;101681.72;5060771;28;20288;-83
2021/12/13 03:46:47;;;;;;;19.80;14.00;;;;;;;8.99;98.76;101684.31;5043647;28;20212;-85
2021/12/13 03:49:18;;;;;;;21.87;13.97;;;;;;;9.00;98.67;101683.41;5037463;28;20226;-83
2021/12/13 03:51:45;;;;;;;21.23;14.07;;;;;;;9.01;98.09;101682.47;5037318;28;20222;-84
2021/12/13 03:54:16;;;;;;;23.73;14.33;;;;;;;9.02;98.94;101692.19;5056021;28;20206;-83
2021/12/13 03:56:46;;;;;;;25.00;15.30;;;;;;;9.02;98.39;101700.16;5057412;28;20288;-83
2021/12/13 03:59:15;;;;;;;21.03;14.17;;;;;;;9.02;98.74;101689.53;5049745;28;20228;-84
2021/12/13 04:01:44;;;;;;;23.70;14.97;;;;;;;9.03;98.87;101691.25;5045198;28;20202;-84
2021/12/13 04:04:15;;;;;;;23.07;13.77;;;;;;;9.05;98.49;101707.13;5051872;28;20206;-82
2021/12/13 04:06:47;;;;;;;24.23;15.07;;;;;;;9.04;98.56;101697.44;5045910;28;20209;-81
2021/12/13 04:09:16;;;;;;;24.17;15.47;;;;;;;9.05;98.84;101702.69;5053531;28;20226;-82
2021/12/13 04:11:46;;;;;;;26.43;14.70;;;;;;;9.04;98.61;101695.66;5049415;28;20217;-81
2021/12/13 04:14:22;;;;;;;23.40;15.17;;;;;;;9.06;98.74;101700.91;5056928;28;20211;-82
2021/12/13 04:17:05;;;;;;;27.57;16.40;;;;;;;9.07;98.50;101699.09;5045854;28;20612;-82
2021/12/13 04:19:43;;;;;;;23.87;15.47;;;;;;;9.10;98.69;101701.66;5052522;28;20230;-82
2021/12/13 04:22:11;;;;;;;20.40;13.47;;;;;;;9.11;98.41;101704.25;5046065;28;20265;-82
2021/12/13 04:24:43;;;;;;;26.20;16.07;;;;;;;9.12;98.21;101702.44;5045622;28;20210;-82
2021/12/13 04:27:18;;;;;;;28.40;16.27;;;;;;;9.13;98.51;101705.06;5046750;28;20297;-81
2021/12/13 04:29:47;;;;;;;22.73;14.87;;;;;;;9.14;98.34;101709.41;5054289;28;20232;-82
2021/12/13 04:32:18;;;;;;;24.53;14.63;;;;;;;9.13;98.58;101709.50;5044347;28;20321;-81
2021/12/13 04:34:45;;;;;;;22.40;14.50;;;;;;;9.13;97.99;101721.00;5054209;28;20201;-82
2021/12/13 04:37:14;;;;;;;24.93;15.50;;;;;;;9.13;98.35;101718.34;5047954;28;20835;-83
2021/12/13 04:39:45;;;;;;;25.70;14.77;;;;;;;9.14;98.50;101717.38;5039720;28;20233;-81
2021/12/13 04:42:14;;;;;;;21.63;14.27;;;;;;;9.14;98.18;101724.50;5047625;28;20201;-83
2021/12/13 04:44:50;;;;;;;26.87;15.37;;;;;;;9.14;97.78;101725.34;5055209;28;20197;-83
2021/12/13 04:47:20;;;;;;;24.00;15.33;;;;;;;9.15;97.94;101728.88;5044303;28;20194;-84
2021/12/13 04:49:52;;;;;;;29.13;16.20;;;;;;;9.15;97.81;101736.84;5041183;28;20783;-84
2021/12/13 04:52:21;;;;;;;22.20;14.90;;;;;;;9.16;98.28;101731.47;5048765;28;20570;-84
2021/12/13 04:54:52;;;;;;;27.77;16.43;;;;;;;9.16;97.67;101738.59;5044150;28;20309;-84
2021/12/13 04:57:20;;;;;;;27.63;17.07;;;;;;;9.16;97.89;101730.63;5049073;28;20288;-85
2021/12/13 04:59:50;;;;;;;26.70;16.33;;;;;;;9.14;97.97;101721.84;5047697;28;20316;-85
2021/12/13 05:02:17;;;;;;;27.27;16.07;;;;;;;9.16;98.24;101728.81;5042556;28;20222;-84
2021/12/13 05:04:44;;;;;;;25.10;16.10;;;;;;;9.15;98.21;101728.88;5056817;28;20212;-84
2021/12/13 05:07:11;;;;;;;27.83;16.13;;;;;;;9.15;98.05;101728.88;5048591;28;20210;-84
2021/12/13 05:09:38;;;;;;;24.60;14.87;;;;;;;9.16;98.40;101725.28;5043655;28;20222;-82
2021/12/13 05:12:13;;;;;;;25.13;15.10;;;;;;;9.18;97.93;101731.41;5047260;28;20332;-84
2021/12/13 05:14:45;;;;;;;24.43;14.80;;;;;;;9.18;97.78;101729.63;5056159;28;20243;-84
2021/12/13 05:17:15;;;;;;;23.37;15.53;;;;;;;9.17;97.82;101735.88;5045277;28;20223;-84
2021/12/13 05:19:45;;;;;;;22.40;15.00;;;;;;;9.17;97.58;101737.66;5050632;28;20221;-84
2021/12/13 05:22:15;;;;;;;21.83;13.77;;;;;;;9.20;97.63;101734.88;5059944;28;20211;-84
2021/12/13 05:24:46;;;;;;;27.60;15.87;;;;;;;9.19;97.98;101738.47;5057922;28;20205;-84
2021/12/13 05:27:16;;;;;;;22.87;15.13;;;;;;;9.18;98.14;101734.94;5047799;28;20208;-84
2021/12/13 05:29:47;;;;;;;20.33;13.50;;;;;;;9.18;97.97;101737.59;5054226;28;20228;-83
2021/12/13 05:32:18;;;;;;;21.47;14.60;;;;;;;9.20;98.01;101748.16;5047796;28;20703;-83
2021/12/13 05:34:48;;;;;;;22.40;14.00;;;;;;;9.20;98.01;101734.88;5046332;28;20202;-82
2021/12/13 05:37:16;;;;;;;23.67;14.70;;;;;;;9.20;97.80;101732.22;5045387;28;20202;-82
2021/12/13 05:39:56;;;;;;;25.43;15.83;;;;;;;9.21;98.21;101745.47;5050017;28;20313;-84
2021/12/13 05:42:35;;;;;;;26.37;15.47;;;;;;;9.22;98.05;101751.63;5066361;28;20232;-83
2021/12/13 05:45:02;;;;;;;23.47;15.17;;;;;;;9.22;98.09;101751.63;5056979;28;20201;-83
2021/12/13 05:47:29;;;;;;;23.03;15.10;;;;;;;9.22;98.04;101752.50;5060022;28;20657;-84
2021/12/13 05:49:55;;;;;;;24.23;15.00;;;;;;;9.22;97.66;101759.63;5062672;28;20236;-84
2021/12/13 05:52:26;;;;;;;23.20;15.70;;;;;;;9.25;97.60;101751.53;5043479;28;20233;-84
2021/12/13 05:54:57;;;;;;;24.30;14.60;;;;;;;9.25;97.69;101763.03;5043914;28;20202;-81
2021/12/13 05:57:28;;;;;;;26.53;15.60;;;;;;;9.25;97.70;101760.38;5051934;28;20216;-83
2021/12/13 06:00:02;;;;;;;30.80;16.23;;;;;;;9.25;97.37;101756.84;5041930;28;20222;-83
2021/12/13 06:02:59;;;;;;;23.70;15.27;;;;;;;9.24;97.90;101763.94;5044605;28;20215;-84
2021/12/13 06:05:31;;;;;;;27.40;17.23;;;;;;;9.24;98.15;101763.94;5035789;28;20214;-84
2021/12/13 06:08:02;;;;;;;24.53;16.17;;;;;;;9.25;97.76;101760.38;5053087;28;20209;-84
2021/12/13 06:10:40;;;;;;;27.53;16.57;;;;;;;9.24;97.85;101771.91;5051634;28;20214;-84
2021/12/13 06:13:12;;;;;;;29.00;17.47;;;;;;;9.24;98.06;101773.72;5054402;28;20575;-84
2021/12/13 06:15:41;;;;;;;28.47;16.67;;;;;;;9.23;97.93;101764.88;5047102;28;20218;-83
2021/12/13 06:18:16;;;;;;;30.93;18.07;;;;;;;9.24;97.64;101773.72;5056156;28;20213;-84
2021/12/13 06:20:48;;;;;;;23.43;15.50;;;;;;;9.25;97.99;101776.31;5050784;28;20225;-84
2021/12/13 06:23:17;;;;;;;28.90;17.53;;;;;;;9.24;97.72;101779.03;5049217;28;20201;-84
2021/12/13 06:25:46;;;;;;;26.47;15.83;;;;;;;9.25;97.36;101786.06;5046482;28;20202;-84
2021/12/13 06:28:21;;;;;;;26.60;16.07;;;;;;;9.25;97.71;101786.94;5047563;28;20217;-83
2021/12/13 06:30:55;;;;;;;27.27;17.03;;;;;;;9.27;97.80;101801.03;5051037;28;20193;-85
2021/12/13 06:33:22;;;;;;;26.57;15.77;;;;;;;9.26;97.63;101793.13;5055695;28;20650;-83
2021/12/13 06:35:51;;;;;;;23.97;15.57;;;;;;;9.28;97.68;101788.63;5057783;28;20210;-85
2021/12/13 06:38:43;;;;;;;26.30;16.07;;;;;;;9.27;97.48;101797.53;5050641;28;20596;-85
2021/12/13 06:41:18;;;;;;;25.57;14.77;;;;;;;9.27;97.65;101792.19;5042788;28;20302;-82
2021/12/13 06:43:50;;;;;;;26.40;15.87;;;;;;;9.26;97.86;101795.78;5051920;28;20193;-82
2021/12/13 06:46:40;;;;;;;28.87;16.83;;;;;;;9.26;97.38;101795.78;5057333;28;20205;-82
2021/12/13 06:49:12;;;;;;;25.10;15.67;;;;;;;9.24;97.54;101794.97;5058076;28;20233;-83
2021/12/13 06:51:46;;;;;;;24.30;15.20;;;;;;;9.24;97.64;101795.84;5054987;28;20211;-83
2021/12/13 06:54:16;;;;;;;27.27;17.03;;;;;;;9.23;97.03;101803.88;5055946;28;20217;-83
2021/12/13 06:56:45;;;;;;;25.00;14.93;;;;;;;9.24;97.67;101800.28;5055950;28;20214;-82
2021/12/13 06:59:21;;;;;;;23.50;14.83;;;;;;;9.23;97.83;101803.88;5046696;28;20242;-83
2021/12/13 07:02:02;;;;;;;26.00;16.53;;;;;;;9.23;97.21;101811.84;5053186;28;20679;-82
2021/12/13 07:04:38;;;;;;;27.37;14.30;;;;;;;9.24;97.32;101810.94;5056053;28;20217;-83
2021/12/13 07:07:12;;;;;;;22.97;15.73;;;;;;;9.23;96.98;101812.72;5053527;28;20201;-83
2021/12/13 07:09:40;;;;;;;23.23;15.30;;;;;;;9.23;97.49;101812.72;5048125;28;20316;-83
2021/12/13 07:12:16;;;;;;;25.30;15.17;;;;;;;9.24;97.50;101818.91;5041763;28;20640;-83
2021/12/13 07:14:48;;;;;;;24.60;14.53;;;;;;;9.24;97.54;101822.44;5048360;28;20226;-83
2021/12/13 07:17:18;;;;;;;22.20;14.27;;;;;;;9.25;97.70;101836.59;5053497;28;20206;-83
2021/12/13 07:19:48;;;;;;;20.37;13.73;;;;;;;9.25;97.25;101837.44;5052833;28;20218;-82
2021/12/13 07:22:19;;;;;;;17.97;11.80;;;;;;;9.25;97.38;101841.91;5056907;28;20580;-83
2021/12/13 07:24:49;;;;;;;20.80;12.73;;;;;;;9.26;96.98;101835.66;5058176;28;20197;-83
2021/12/13 07:27:18;;;;;;;19.63;13.10;;;;;;;9.26;97.48;101838.31;5054242;28;20300;-83
2021/12/13 07:29:49;;;;;;;18.00;12.70;;;;;;;9.27;97.11;101853.34;5042643;28;20710;-83
2021/12/13 07:32:20;;;;;;;20.50;12.93;;;;;;;9.27;97.58;101848.91;5054779;28;20213;-83
2021/12/13 07:35:01;;;;;;;20.50;13.03;;;;;;;9.26;96.69;101852.47;5055312;28;20575;-82
2021/12/13 07:37:45;;;;;;;16.77;12.03;;;;;;;9.29;96.83;101852.38;5052879;28;20216;-83
2021/12/13 07:40:28;;;;;;;18.63;10.77;;;;;;;9.28;97.07;101852.41;5048419;28;20685;-83
2021/12/13 07:43:09;;;;;;;19.77;11.80;;;;;;;9.29;97.04;101851.50;5052461;28;20210;-83
2021/12/13 07:45:43;;;;;;;18.67;13.03;;;;;;;9.28;97.09;101849.75;5048753;28;20280;-81
2021/12/13 07:48:13;;;;;;;16.27;11.37;;;;;;;9.30;97.34;101853.22;5052540;28;20225;-82
2021/12/13 07:50:43;;;;;;;17.43;11.13;;;;;;;9.29;97.12;101852.38;5047943;28;20205;-83
2021/12/13 07:53:13;;;;;;;21.00;11.47;;;;;;;9.31;96.72;101852.31;5041940;28;20324;-83
2021/12/13 07:55:46;;;;;;;18.40;11.10;;;;;;;9.29;96.85;101849.72;5047685;28;20576;-83
2021/12/13 07:58:17;;;;;;;16.87;11.33;;;;;;;9.30;96.64;101854.09;5039511;28;20265;-82
2021/12/13 08:00:46;;;;;;;18.20;11.00;;;;;;;9.29;96.99;101855.03;5057380;28;20278;-83
2021/12/13 08:03:16;;;;;;;13.73;9.60;;;;;;;9.31;96.52;101857.63;5043124;28;20214;-83
2021/12/13 08:05:45;;;;;;;15.93;10.63;;;;;;;9.31;96.57;101860.28;5047416;28;20216;-82
2021/12/13 08:08:20;;;;;;;15.73;11.03;;;;;;;9.31;96.96;101866.47;5051452;28;20247;-82
2021/12/13 08:10:49;;;;;;;14.53;10.07;;;;;;;9.31;96.85;101866.47;5059287;28;20255;-82
2021/12/13 08:13:18;;;;;;;17.67;10.53;;;;;;;9.32;96.19;101873.47;5044539;28;20237;-82
2021/12/13 08:15:49;;;;;;;14.13;10.33;;;;;;;9.32;96.27;101875.28;5042960;28;20237;-83
2021/12/13 08:18:25;;;;;;;14.37;9.90;;;;;;;9.33;96.53;101879.66;5048438;28;20230;-83
2021/12/13 08:20:57;;;;;;;14.17;10.03;;;;;;;9.34;96.17;101886.72;5044128;28;20206;-82
2021/12/13 08:23:27;;;;;;;14.97;9.37;;;;;;;9.35;96.59;101888.47;5043211;28;20208;-83
2021/12/13 08:25:58;;;;;;;14.70;9.97;;;;;;;9.35;96.91;101885.78;5048285;28;20206;-83
2021/12/13 08:28:34;;;;;;;13.33;9.93;;;;;;;9.36;96.41;101891.06;5047759;28;20240;-82
2021/12/13 08:31:04;;;;;;;16.40;10.97;;;;;;;9.38;96.33;101891.00;5046531;28;20557;-82
2021/12/13 08:33:37;;;;;;;14.77;10.03;;;;;;;9.37;96.26;101898.13;5043076;28;20233;-83
2021/12/13 08:36:07;;;;;;;14.40;9.37;;;;;;;9.37;96.07;101894.59;5048740;28;20210;-83
2021/12/13 08:38:41;;;;;;;12.77;9.00;;;;;;;9.38;96.49;101899.84;5046517;28;20227;-83
2021/12/13 08:41:20;;;;;;;14.17;9.40;;;;;;;9.40;96.43;101897.13;5041597;28;20213;-83
2021/12/13 08:43:51;;;;;;;13.70;9.57;;;;;;;9.42;95.81;101894.41;5066558;28;20575;-82
2021/12/13 08:46:30;;;;;;;13.37;9.93;;;;;;;9.42;96.23;101897.94;5055200;28;20604;-83
2021/12/13 08:48:57;;;;;;;11.73;9.23;;;;;;;9.43;96.21;101897.03;5047423;28;20257;-84
2021/12/13 08:51:26;;;;;;;12.93;9.00;;;;;;;9.44;96.17;101903.19;5052860;28;20640;-84
2021/12/13 08:54:04;;;;;;;11.37;8.60;;;;;;;9.45;96.12;101907.59;5057165;28;20225;-84
2021/12/13 08:56:34;;;;;;;12.77;8.60;;;;;;;9.46;96.01;101904.00;5048085;28;20836;-84
2021/12/13 08:59:09;;;;;;;13.60;9.07;;;;;;;9.48;95.99;101926.09;5043381;28;20256;-84
2021/12/13 09:01:43;;;;;;;12.23;8.77;;;;;;;9.50;95.92;101924.22;5043813;28;20288;-82
2021/12/13 09:04:11;;;;;;;13.70;9.53;;;;;;;9.50;95.62;101917.09;5045014;28;20575;-83
2021/12/13 09:06:38;;;;;;;12.40;9.10;;;;;;;9.50;95.56;101925.09;5053487;28;20724;-83
2021/12/13 09:09:12;;;;;;;13.77;9.30;;;;;;;9.51;95.97;101924.16;5044306;28;20213;-83
2021/12/13 09:11:44;;;;;;;13.07;9.60;;;;;;;9.53;95.25;101924.97;5056046;28;20403;-83
2021/12/13 09:14:16;;;;;;;12.77;9.50;;;;;;;9.54;95.51;101923.19;5055293;28;20254;-84
2021/12/13 09:16:56;;;;;;;13.83;10.40;;;;;;;9.55;95.28;101922.25;5053874;28;20208;-84
2021/12/13 09:19:27;;;;;;;13.70;10.37;;;;;;;9.55;95.49;101922.25;5053705;28;20279;-84
2021/12/13 09:21:58;;;;;;;12.67;9.90;;;;;;;9.55;95.00;101915.16;5045994;28;20214;-84
2021/12/13 09:24:29;;;;;;;13.80;10.53;;;;;;;9.57;95.01;101921.28;5052611;28;20209;-84
2021/12/13 09:27:18;;;;;;;13.43;9.83;;;;;;;9.58;95.17;101928.34;5054686;28;20759;-83
2021/12/13 09:29:55;;;;;;;13.37;10.17;;;;;;;9.60;94.82;101930.94;5040657;28;20237;-84
2021/12/13 09:32:30;;;;;;;13.23;10.13;;;;;;;9.61;94.74;101946.84;5045480;28;20213;-84
2021/12/13 09:35:20;;;;;;;11.77;9.00;;;;;;;9.62;94.48;101935.28;5051481;28;20212;-84
2021/12/13 09:37:47;;;;;;;13.93;10.23;;;;;;;9.63;94.48;101939.66;5042751;28;20208;-84
2021/12/13 09:40:17;;;;;;;13.60;9.20;;;;;;;9.64;94.35;101932.56;5037213;28;20209;-84
2021/12/13 09:42:47;;;;;;;13.80;10.40;;;;;;;9.65;94.72;101943.13;5035776;28;20206;-84
2021/12/13 09:45:15;;;;;;;13.93;10.33;;;;;;;9.67;94.33;101937.75;5049881;28;20581;-84
2021/12/13 09:47:44;;;;;;;11.80;9.57;;;;;;;9.67;94.13;101943.91;5037525;28;20210;-83
2021/12/13 09:50:14;;;;;;;13.07;10.30;;;;;;;9.68;93.97;101937.66;5051346;28;20691;-83
2021/12/13 09:52:44;;;;;;;14.47;11.70;;;;;;;9.70;94.16;101949.13;5047987;28;20216;-83
2021/12/13 09:55:17;;;;;;;19.73;16.47;;;;;;;9.71;93.88;101940.22;5050779;28;20721;-84
2021/12/13 09:57:51;;;;;;;13.77;10.93;;;;;;;9.71;93.62;101945.53;5035502;28;20304;-83
2021/12/13 10:00:22;;;;;;;16.27;11.97;;;;;;;9.74;93.61;101944.56;5035659;28;20296;-83
2021/12/13 10:02:54;;;;;;;19.13;13.30;;;;;;;9.75;93.97;101946.28;5041983;28;20216;-83
2021/12/13 10:05:25;;;;;;;23.03;16.07;;;;;;;9.74;93.88;101939.22;5044591;28;20217;-84
2021/12/13 10:07:54;;;;;;;20.37;13.83;;;;;;;9.75;93.65;101940.97;5038490;28;20209;-84
2021/12/13 10:10:26;;;;;;;21.53;14.77;;;;;;;9.75;93.63;101933.84;5047416;28;20299;-84
2021/12/13 10:12:57;;;;;;;25.10;16.80;;;;;;;9.78;93.26;101929.34;5054952;28;20241;-82
2021/12/13 10:15:28;;;;;;;23.43;16.70;;;;;;;9.79;92.80;101921.31;5055478;28;20292;-83
2021/12/13 10:18:02;;;;;;;22.97;15.77;;;;;;;9.80;92.86;101922.16;5045848;28;20201;-83
2021/12/13 10:20:32;;;;;;;25.57;15.30;;;;;;;9.79;93.00;101921.31;5055500;28;20215;-83
2021/12/13 10:22:59;;;;;;;28.07;16.57;;;;;;;9.81;92.74;101923.91;5035757;28;20210;-84
2021/12/13 10:25:30;;;;;;;24.80;16.87;;;;;;;9.80;92.86;101922.16;5048995;28;20209;-84
2021/12/13 10:27:57;;;;;;;28.00;17.10;;;;;;;9.81;92.40;101926.56;5040865;28;20213;-84
2021/12/13 10:30:28;;;;;;;29.03;18.33;;;;;;;9.81;92.36;101929.22;5055815;28;20213;-85
2021/12/13 10:32:56;;;;;;;26.50;16.87;;;;;;;9.82;92.49;101933.63;5054371;28;20228;-84
2021/12/13 10:35:27;;;;;;;26.97;17.70;;;;;;;9.81;92.13;101931.88;5054315;28;20225;-84
2021/12/13 10:37:59;;;;;;;27.77;17.23;;;;;;;9.81;92.25;101938.09;5036955;28;20198;-83
2021/12/13 10:40:29;;;;;;;27.67;17.43;;;;;;;9.82;92.53;101933.63;5045389;28;20220;-83
2021/12/13 10:42:59;;;;;;;29.67;17.37;;;;;;;9.84;91.93;101929.13;5039532;28;20215;-84
2021/12/13 10:45:31;;;;;;;28.00;16.67;;;;;;;9.82;91.79;101936.28;5042827;28;20214;-84
2021/12/13 10:48:05;;;;;;;25.77;16.57;;;;;;;9.82;91.98;101937.16;5051478;28;20639;-84
2021/12/13 10:50:36;;;;;;;25.00;17.10;;;;;;;9.82;91.50;101925.66;5040967;28;20291;-85
2021/12/13 10:53:05;;;;;;;24.73;17.53;;;;;;;9.82;91.55;101920.31;5039081;28;20226;-84
2021/12/13 10:55:34;;;;;;;28.87;18.17;;;;;;;9.82;91.76;101925.66;5045091;28;20213;-84
2021/12/13 10:58:02;;;;;;;21.87;15.73;;;;;;;9.84;91.80;101921.13;5045293;28;20221;-83
2021/12/13 11:00:36;;;;;;;25.87;16.97;;;;;;;9.84;91.52;101923.78;5042267;28;20202;-84
2021/12/13 11:03:09;;;;;;;24.43;15.83;;;;;;;9.84;91.54;101924.66;5043732;28;20576;-84
2021/12/13 11:05:36;;;;;;;29.10;19.17;;;;;;;9.83;91.35;101917.59;5042146;28;20213;-85
2021/12/13 11:08:05;;;;;;;29.40;18.53;;;;;;;9.82;91.18;101925.66;5056382;28;20224;-84
2021/12/13 11:10:35;;;;;;;26.80;16.67;;;;;;;9.83;91.13;101930.91;5054450;28;20206;-84
2021/12/13 11:13:02;;;;;;;27.80;16.97;;;;;;;9.82;91.37;101930.97;5049386;28;20209;-84
2021/12/13 11:15:32;;;;;;;29.27;18.37;;;;;;;9.82;91.37;101920.31;5053346;28;20235;-84
2021/12/13 11:18:00;;;;;;;30.13;17.50;;;;;;;9.81;90.86;101916.78;5056739;28;20578;-84
2021/12/13 11:20:32;;;;;;;36.50;21.17;;;;;;;9.82;90.83;101921.19;5044348;28;20238;-84
2021/12/13 11:23:00;;;;;;;37.93;24.07;;;;;;;9.83;91.08;101922.06;5040207;28;20260;-84
2021/12/13 11:25:31;;;;;;;59.30;33.67;;;;;;;9.84;91.21;101923.78;5049479;28;20263;-84
2021/12/13 11:27:59;;;;;;;37.30;25.93;;;;;;;9.85;90.97;101934.38;5050476;28;20588;-84
2021/12/13 11:30:29;;;;;;;35.67;21.70;;;;;;;9.84;90.71;101932.66;5038446;28;20278;-83
2021/12/13 11:33:50;;;;;;;23.80;15.47;;;;;;;9.83;90.68;101920.25;5052027;28;20214;-83
2021/12/13 11:36:39;;;;;;;28.73;17.50;;;;;;;9.83;90.59;101922.91;5053021;28;20216;-83
2021/12/13 11:39:30;;;;;;;26.57;16.93;;;;;;;9.83;90.77;101919.41;5051116;28;20233;-83
2021/12/13 11:42:21;;;;;;;24.77;15.27;;;;;;;9.83;90.41;101922.06;5051248;28;20202;-84
2021/12/13 11:45:09;;;;;;;25.07;16.47;;;;;;;9.81;90.12;101923.91;5037134;28;20575;-85
2021/12/13 11:48:02;;;;;;;25.67;16.07;;;;;;;9.78;90.35;101918.69;5051222;28;20227;-83